Time;durP1;ratioP1;P1;durP2;ratioP2;P2;SDS_P1;SDS_P2;PMS_P1;PMS_P2;Temp;Humidity;BMP_temperature;BMP_pressure;BME280_temperature;BME280_humidity;BME280_pressure;Samples;Min_cycle;Max_cycle;Signal;HPM_P1;HPM_P2
2021/12/07 00:01:43;;;;;;;26.40;10.95;;;;;;;-0.68;55.76;100501.00;4969275;28;20038;-66
2021/12/07 00:04:09;;;;;;;26.98;10.85;;;;;;;-0.86;55.84;100494.16;4969109;28;20191;-66
2021/12/07 00:06:36;;;;;;;26.58;10.63;;;;;;;-0.63;55.19;100491.59;4987699;28;20035;-66
2021/12/07 00:09:08;;;;;;;25.83;10.27;;;;;;;-0.40;54.80;100490.72;4967673;28;20179;-64
2021/12/07 00:11:33;;;;;;;29.50;12.27;;;;;;;-0.49;54.75;100495.88;4989429;28;20137;-65
2021/12/07 00:13:59;;;;;;;31.67;12.82;;;;;;;-0.32;54.49;100486.44;4978534;28;20029;-64
2021/12/07 00:16:28;;;;;;;26.33;11.88;;;;;;;-0.48;54.78;100489.84;4986815;28;20065;-64
2021/12/07 00:18:54;;;;;;;26.23;11.05;;;;;;;-0.27;54.52;100487.28;4985565;28;20439;-64
2021/12/07 00:21:21;;;;;;;28.10;11.15;;;;;;;-0.28;54.19;100488.16;4971741;28;20339;-64
2021/12/07 00:23:48;;;;;;;30.92;11.48;;;;;;;-0.38;54.67;100478.75;4986880;28;20094;-64
2021/12/07 00:26:15;;;;;;;24.50;11.27;;;;;;;-0.48;54.73;100487.28;4987076;28;20046;-64
2021/12/07 00:28:41;;;;;;;27.60;11.90;;;;;;;-0.45;54.38;100482.19;4986627;28;20499;-64
2021/12/07 00:31:13;;;;;;;36.05;11.95;;;;;;;-0.16;53.87;100482.97;4957969;28;20149;-64
2021/12/07 00:36:28;;;;;;;24.38;11.63;;;;;;;-0.36;54.46;100489.88;4954069;28;20303;-65
2021/12/07 00:38:53;;;;;;;41.25;13.30;;;;;;;-0.28;54.33;100485.59;4986778;28;20103;-64
2021/12/07 00:41:18;;;;;;;32.00;12.68;;;;;;;-0.56;55.26;100493.28;4987277;28;20074;-64
2021/12/07 00:43:46;;;;;;;27.95;11.35;;;;;;;-0.20;54.07;100483.84;4985779;28;20538;-67
2021/12/07 00:46:12;;;;;;;25.15;10.90;;;;;;;-0.19;54.21;100488.13;4969975;28;20039;-67
2021/12/07 00:48:37;;;;;;;29.17;11.75;;;;;;;-0.03;53.67;100485.53;4987268;28;20503;-67
2021/12/07 00:51:04;;;;;;;29.15;11.18;;;;;;;-0.21;54.14;100492.41;4972533;28;20034;-67
2021/12/07 00:53:29;;;;;;;27.92;10.45;;;;;;;-0.43;55.01;100491.59;4986731;28;20061;-67
2021/12/07 00:55:59;;;;;;;27.15;10.70;;;;;;;-0.20;54.34;100494.13;4973995;28;20031;-67
2021/12/07 00:58:26;;;;;;;26.15;11.25;;;;;;;0.06;53.80;100494.06;4978726;28;20150;-67
2021/12/07 01:00:58;;;;;;;29.05;11.93;;;;;;;0.16;52.98;100500.03;4973400;28;20033;-67
2021/12/07 01:03:25;;;;;;;22.75;11.20;;;;;;;0.12;53.09;100503.47;4969531;28;20042;-67
2021/12/07 01:06:01;;;;;;;33.00;12.05;;;;;;;0.05;53.51;100494.06;4973306;28;20018;-67
2021/12/07 01:08:54;;;;;;;30.38;11.35;;;;;;;0.16;53.16;100494.88;4984126;28;20060;-67
2021/12/07 01:25:07;;;;;;;31.70;11.10;;;;;;;0.26;52.83;100501.72;4986500;28;20417;-65
2021/12/07 01:27:32;;;;;;;25.33;11.82;;;;;;;-0.05;53.83;100500.09;4971067;28;20169;-64
2021/12/07 01:30:09;;;;;;;23.35;10.48;;;;;;;0.05;53.54;100500.09;4986131;28;20035;-65
2021/12/07 01:32:50;;;;;;;25.90;10.40;;;;;;;-0.03;53.90;100500.97;4968494;28;20038;-64
2021/12/07 01:43:50;;;;;;;31.13;11.82;;;;;;;0.14;53.38;100509.47;4987452;28;20503;-67
2021/12/07 01:46:38;;;;;;;24.45;10.75;;;;;;;0.15;53.34;100500.06;4974717;28;20026;-68
2021/12/07 01:59:48;;;;;;;25.38;11.55;;;;;;;-0.28;54.93;100515.53;4980926;28;20038;-66
2021/12/07 02:02:18;;;;;;;31.23;11.20;;;;;;;-0.32;54.99;100512.13;4989449;28;20570;-66
2021/12/07 02:04:45;;;;;;;28.02;10.65;;;;;;;-0.26;54.87;100500.97;4964950;28;20105;-67
2021/12/07 02:07:14;;;;;;;23.95;11.00;;;;;;;-0.27;54.88;100510.41;4954694;28;20455;-67
2021/12/07 02:09:49;;;;;;;27.27;11.00;;;;;;;-0.32;54.84;100512.13;4976195;28;20058;-67
2021/12/07 02:12:15;;;;;;;28.80;11.20;;;;;;;-0.24;54.65;100515.53;4979630;28;20885;-67
2021/12/07 02:14:43;;;;;;;25.67;11.43;;;;;;;-0.31;54.87;100513.81;4980112;28;20057;-67
2021/12/07 02:17:12;;;;;;;28.70;11.60;;;;;;;-0.38;54.90;100514.69;4963701;28;20038;-67
2021/12/07 02:19:39;;;;;;;29.60;12.40;;;;;;;-0.54;55.75;100518.13;4987385;28;20030;-67
2021/12/07 02:22:05;;;;;;;25.73;11.80;;;;;;;-0.52;55.84;100509.56;4970727;28;20056;-67
2021/12/07 02:24:38;;;;;;;26.73;10.95;;;;;;;-0.42;55.42;100510.41;4976691;28;20092;-68
2021/12/07 02:27:04;;;;;;;30.02;11.48;;;;;;;-0.44;55.66;100509.56;4989749;28;20815;-69
2021/12/07 02:29:29;;;;;;;29.95;10.93;;;;;;;-0.24;54.90;100505.25;4976604;28;20438;-69
2021/12/07 02:31:56;;;;;;;31.92;11.77;;;;;;;-0.39;55.52;100518.13;4972801;28;20046;-69
2021/12/07 02:34:24;;;;;;;22.65;10.35;;;;;;;-0.37;55.70;100506.13;4973006;28;20080;-69
2021/12/07 02:36:51;;;;;;;26.00;10.55;;;;;;;-0.22;55.41;100516.38;4959573;28;20038;-69
2021/12/07 02:39:31;;;;;;;25.50;11.10;;;;;;;-0.34;55.57;100506.13;4982186;28;20037;-70
2021/12/07 02:41:59;;;;;;;33.60;12.45;;;;;;;-0.41;55.86;100500.16;4981076;28;20101;-71
2021/12/07 02:44:26;;;;;;;26.80;12.43;;;;;;;-0.51;56.14;100507.84;4975980;28;20420;-71
2021/12/07 02:46:52;;;;;;;26.40;12.40;;;;;;;-0.45;55.95;100507.84;4973532;28;20383;-71
2021/12/07 02:49:19;;;;;;;25.85;11.80;;;;;;;-0.27;55.54;100512.97;4973380;28;20045;-69
2021/12/07 02:51:46;;;;;;;32.22;12.68;;;;;;;-0.15;55.23;100512.97;4958961;28;20061;-71
2021/12/07 02:54:11;;;;;;;26.13;11.73;;;;;;;-0.44;56.20;100520.66;4974123;28;20033;-70
2021/12/07 02:56:37;;;;;;;30.23;13.50;;;;;;;-0.33;55.93;100523.25;4987862;28;20041;-70
2021/12/07 02:59:04;;;;;;;28.45;11.18;;;;;;;-0.45;56.26;100524.09;4973375;28;20470;-70
2021/12/07 03:01:34;;;;;;;31.52;13.27;;;;;;;-0.60;56.92;100524.09;4981287;28;20046;-70
2021/12/07 03:04:10;;;;;;;25.00;11.48;;;;;;;-0.37;56.03;100521.53;4979628;28;22888;-70
2021/12/07 03:26:06;;;;;;;29.88;12.50;;;;;;;-0.28;55.54;100526.69;4976722;28;20458;-66
2021/12/07 03:28:45;;;;;;;26.10;13.05;;;;;;;-0.36;55.85;100528.38;4974939;28;20030;-66
2021/12/07 03:31:14;;;;;;;27.85;11.52;;;;;;;-0.27;55.60;100527.53;4965320;28;20034;-66
2021/12/07 03:33:43;;;;;;;27.73;13.18;;;;;;;-0.31;55.48;100530.94;4970545;28;20116;-66
2021/12/07 03:36:10;;;;;;;33.78;13.57;;;;;;;-0.54;56.16;100533.53;4974635;28;20040;-66
2021/12/07 03:38:36;;;;;;;30.60;13.38;;;;;;;-0.50;56.25;100530.09;4974694;28;20236;-66
2021/12/07 03:41:03;;;;;;;31.83;12.48;;;;;;;-0.38;56.06;100530.09;4974324;28;20034;-66
2021/12/07 03:43:29;;;;;;;31.08;12.95;;;;;;;-0.73;56.90;100532.63;4978901;28;20522;-66
2021/12/07 03:45:55;;;;;;;30.23;14.32;;;;;;;-0.41;56.13;100530.09;4975353;28;20030;-66
2021/12/07 03:48:25;;;;;;;30.23;13.23;;;;;;;-0.32;56.00;100527.53;4955185;28;20046;-66
2021/12/07 03:50:50;;;;;;;29.98;11.82;;;;;;;-0.53;56.84;100527.53;4973191;28;20121;-66
2021/12/07 03:53:16;;;;;;;31.08;13.98;;;;;;;-0.34;56.19;100536.94;4988409;28;20590;-66
2021/12/07 03:55:43;;;;;;;29.45;12.32;;;;;;;-0.26;56.09;100532.69;4957545;28;20142;-66
2021/12/07 03:58:09;;;;;;;26.05;12.52;;;;;;;-0.24;56.19;100537.78;4959865;28;20300;-66
2021/12/07 04:00:39;;;;;;;27.13;12.20;;;;;;;-0.20;56.20;100535.22;4987509;28;20032;-66
2021/12/07 04:03:09;;;;;;;29.70;13.40;;;;;;;-0.15;56.22;100538.66;4976392;28;20038;-66
2021/12/07 04:05:44;;;;;;;30.38;12.55;;;;;;;0.01;55.92;100531.78;4977732;28;20033;-66
2021/12/07 04:08:17;;;;;;;29.13;14.48;;;;;;;-0.00;56.06;100536.91;4986089;28;20508;-66
2021/12/07 04:10:43;;;;;;;29.73;12.15;;;;;;;-0.01;56.11;100536.06;4986280;28;20549;-65
2021/12/07 04:13:08;;;;;;;31.70;13.90;;;;;;;0.16;55.67;100533.44;4972157;28;20034;-66
2021/12/07 04:15:34;;;;;;;27.85;13.43;;;;;;;0.10;55.76;100533.47;4971449;28;20467;-66
2021/12/07 04:18:00;;;;;;;26.33;12.35;;;;;;;0.25;55.62;100525.69;4988181;28;20034;-65
2021/12/07 04:20:26;;;;;;;26.90;12.93;;;;;;;0.22;55.88;100537.72;4974009;28;20423;-64
2021/12/07 04:22:51;;;;;;;30.63;14.10;;;;;;;0.26;55.63;100536.88;4973023;28;20049;-65
2021/12/07 04:25:17;;;;;;;28.95;14.73;;;;;;;-0.10;56.66;100541.22;4987863;28;20045;-65
2021/12/07 04:27:44;;;;;;;26.98;13.13;;;;;;;0.05;56.43;100548.91;4987952;28;20037;-64
2021/12/07 04:30:19;;;;;;;27.88;14.63;;;;;;;0.18;55.90;100538.59;4988212;28;20510;-64
2021/12/07 04:32:44;;;;;;;26.23;12.57;;;;;;;-0.02;56.41;100541.19;4985547;28;20046;-66
2021/12/07 04:35:12;;;;;;;26.92;13.10;;;;;;;-0.03;56.61;100549.78;4989718;28;20030;-66
2021/12/07 04:37:39;;;;;;;31.83;13.60;;;;;;;-0.03;56.45;100553.19;4987996;28;20053;-64
2021/12/07 04:40:07;;;;;;;27.77;14.85;;;;;;;0.05;56.18;100550.59;4980671;28;20037;-65
2021/12/07 04:42:33;;;;;;;33.63;15.25;;;;;;;-0.26;57.29;100547.22;4971211;28;20045;-64
2021/12/07 04:45:03;;;;;;;34.35;13.73;;;;;;;0.12;56.03;100542.00;4975085;28;20226;-66
2021/12/07 04:47:41;;;;;;;26.35;13.38;;;;;;;0.01;56.25;100538.59;4969502;28;20030;-66
2021/12/07 04:58:08;;;;;;;25.58;12.80;;;;;;;0.23;55.48;100550.59;4985368;28;20042;-63
2021/12/07 05:00:33;;;;;;;26.02;12.35;;;;;;;0.04;56.25;100559.19;4986655;28;20039;-63
2021/12/07 05:03:03;;;;;;;33.00;12.40;;;;;;;0.16;56.41;100558.28;4973890;28;20259;-63
2021/12/07 05:05:34;;;;;;;24.63;11.55;;;;;;;-0.15;56.98;100554.06;4974916;28;20038;-63
2021/12/07 05:08:02;;;;;;;27.17;12.57;;;;;;;0.28;55.67;100556.56;4968092;28;20483;-65
2021/12/07 05:10:31;;;;;;;27.33;13.00;;;;;;;0.24;56.06;100552.28;4986132;28;20037;-64
2021/12/07 05:15:44;;;;;;;31.40;12.32;;;;;;;-0.07;56.75;100558.34;4986929;28;20038;-69
2021/12/07 05:23:57;;;;;;;23.02;12.43;;;;;;;-0.43;58.20;100567.78;4988913;28;20070;-69
2021/12/07 05:39:52;;;;;;;29.40;13.77;;;;;;;0.06;56.65;100578.03;4989135;28;20570;-70
2021/12/07 05:42:21;;;;;;;23.80;11.93;;;;;;;0.10;56.45;100579.75;4972220;28;20053;-69
2021/12/07 05:44:46;;;;;;;27.58;13.27;;;;;;;0.38;55.90;100570.25;4990340;28;20053;-69
2021/12/07 05:47:12;;;;;;;26.52;11.48;;;;;;;0.37;55.93;100567.69;4990513;28;20042;-70
2021/12/07 05:49:37;;;;;;;25.50;11.27;;;;;;;0.30;55.62;100571.13;4988542;28;20052;-69
2021/12/07 05:52:03;;;;;;;24.20;11.93;;;;;;;0.33;55.84;100571.13;4990413;28;20491;-69
2021/12/07 05:54:29;;;;;;;26.23;12.60;;;;;;;0.25;56.20;100569.41;4991312;28;20045;-68
2021/12/07 05:56:54;;;;;;;20.88;11.68;;;;;;;0.20;56.46;100572.88;4991341;28;20251;-69
2021/12/07 05:59:20;;;;;;;23.25;11.80;;;;;;;0.33;55.77;100579.69;4974053;28;20038;-69
2021/12/07 06:01:45;;;;;;;28.17;12.43;;;;;;;0.17;56.23;100586.56;4981087;28;20038;-65
2021/12/07 06:04:11;;;;;;;22.27;10.52;;;;;;;0.41;56.12;100588.25;4989736;28;20041;-66
2021/12/07 06:06:36;;;;;;;27.90;11.25;;;;;;;0.34;55.87;100588.25;4991252;28;20339;-67
2021/12/07 06:09:03;;;;;;;25.80;11.93;;;;;;;0.13;56.51;100595.16;4990707;28;20061;-68
2021/12/07 06:11:29;;;;;;;21.90;9.70;;;;;;;-0.33;58.25;100605.41;4991861;28;20121;-67
2021/12/07 06:13:54;;;;;;;20.63;10.00;;;;;;;0.31;56.15;100595.97;4990351;28;20124;-68
2021/12/07 06:16:20;;;;;;;23.45;9.82;;;;;;;0.07;56.78;100605.44;4975722;28;20042;-67
2021/12/07 06:18:46;;;;;;;21.27;10.07;;;;;;;0.16;56.60;100617.41;4975672;28;20044;-67
2021/12/07 06:21:13;;;;;;;16.63;8.95;;;;;;;0.20;56.56;100626.84;4989482;28;20064;-68
2021/12/07 06:23:38;;;;;;;17.67;10.35;;;;;;;-0.14;57.66;100626.84;4990258;28;20042;-69
2021/12/07 06:26:05;;;;;;;18.95;8.43;;;;;;;0.31;56.50;100629.41;4963874;28;20041;-69
2021/12/07 06:28:30;;;;;;;20.25;8.30;;;;;;;0.36;56.19;100622.53;4976530;28;20041;-68
2021/12/07 06:30:56;;;;;;;23.88;10.23;;;;;;;0.07;57.18;100625.97;4986702;28;20034;-68
2021/12/07 06:33:25;;;;;;;17.80;9.27;;;;;;;0.37;56.42;100624.25;4960509;28;20332;-68
2021/12/07 06:35:56;;;;;;;24.13;11.05;;;;;;;0.20;56.90;100632.81;4980219;28;20030;-68
2021/12/07 06:38:23;;;;;;;20.65;8.90;;;;;;;0.35;56.40;100625.97;4990999;28;20057;-68
2021/12/07 06:40:49;;;;;;;21.80;10.15;;;;;;;0.16;57.04;100631.13;4989177;28;20104;-69
2021/12/07 06:43:15;;;;;;;21.67;9.38;;;;;;;0.03;57.38;100630.28;4976527;28;20095;-67
2021/12/07 06:45:41;;;;;;;23.00;10.10;;;;;;;-0.14;57.60;100632.84;4990239;28;20038;-69
2021/12/07 06:48:07;;;;;;;21.65;9.07;;;;;;;0.30;56.62;100643.09;4974367;28;20167;-68
2021/12/07 06:50:33;;;;;;;21.23;9.70;;;;;;;0.46;56.16;100642.25;4988058;28;20366;-70
2021/12/07 06:52:59;;;;;;;16.92;8.32;;;;;;;0.34;56.04;100639.66;4987582;28;20121;-69
2021/12/07 06:55:24;;;;;;;18.85;9.60;;;;;;;0.28;56.37;100637.97;4987041;28;20509;-69
2021/12/07 06:57:50;;;;;;;17.85;9.35;;;;;;;-0.70;59.40;100640.47;4974419;28;20042;-68
2021/12/07 07:00:18;;;;;;;22.20;9.63;;;;;;;-0.18;57.88;100631.13;4972570;28;20554;-67
2021/12/07 07:02:43;;;;;;;23.73;9.68;;;;;;;-0.14;57.67;100632.84;4986136;28;20080;-68
2021/12/07 07:05:10;;;;;;;22.60;10.02;;;;;;;-0.10;58.13;100645.69;4987525;28;20057;-67
2021/12/07 07:07:37;;;;;;;23.35;10.13;;;;;;;0.11;57.32;100640.53;4986843;28;20430;-66
2021/12/07 07:10:04;;;;;;;20.23;9.18;;;;;;;0.29;56.40;100642.25;4988337;28;20083;-66
2021/12/07 07:12:30;;;;;;;28.48;10.35;;;;;;;-0.00;57.64;100634.56;4987995;28;20085;-68
2021/12/07 07:14:56;;;;;;;19.38;10.82;;;;;;;0.05;57.33;100637.97;4970577;28;20034;-67
2021/12/07 07:17:22;;;;;;;22.77;10.10;;;;;;;0.04;57.29;100646.56;4974345;28;20057;-66
2021/12/07 07:19:48;;;;;;;23.10;10.60;;;;;;;-0.28;58.00;100649.09;4988455;28;20034;-67
2021/12/07 07:22:13;;;;;;;27.80;10.88;;;;;;;0.02;57.80;100649.13;4986138;28;20045;-69
2021/12/07 07:24:41;;;;;;;21.65;10.18;;;;;;;-0.06;57.95;100652.53;4968770;28;20145;-67
2021/12/07 07:27:06;;;;;;;22.80;9.23;;;;;;;-0.08;58.35;100660.25;4989450;28;20053;-66
2021/12/07 07:29:32;;;;;;;27.08;10.05;;;;;;;-0.06;57.93;100661.09;4986077;28;20532;-66
2021/12/07 07:31:58;;;;;;;21.38;10.45;;;;;;;0.17;57.24;100666.25;4986336;28;20061;-67
2021/12/07 07:34:24;;;;;;;20.35;10.15;;;;;;;-0.04;58.11;100673.94;4977894;28;20446;-66
2021/12/07 07:36:50;;;;;;;26.90;10.40;;;;;;;0.33;56.79;100663.69;4972297;28;20117;-67
2021/12/07 07:39:15;;;;;;;19.50;8.93;;;;;;;0.09;57.89;100665.38;4988571;28;20122;-68
2021/12/07 07:41:41;;;;;;;23.27;10.02;;;;;;;0.20;57.19;100662.81;4985413;28;20110;-67
2021/12/07 07:44:06;;;;;;;26.58;10.57;;;;;;;-0.02;58.20;100678.22;4971783;28;20018;-67
2021/12/07 07:46:41;;;;;;;28.05;10.93;;;;;;;0.32;57.17;100678.22;4972466;28;20507;-66
2021/12/07 07:49:07;;;;;;;24.23;9.60;;;;;;;0.10;57.75;100677.41;4978796;28;20038;-67
2021/12/07 07:51:34;;;;;;;20.58;9.50;;;;;;;0.25;56.90;100682.50;4978297;28;20046;-67
2021/12/07 07:54:00;;;;;;;21.00;9.35;;;;;;;0.46;56.65;100675.66;4988451;28;20530;-67
2021/12/07 07:56:27;;;;;;;27.05;10.05;;;;;;;0.08;57.97;100668.84;4978770;28;20045;-67
2021/12/07 07:58:54;;;;;;;20.38;9.43;;;;;;;0.39;56.82;100681.66;4986458;28;20041;-67
2021/12/07 08:01:20;;;;;;;23.58;11.07;;;;;;;0.26;57.08;100685.97;4988071;28;20038;-67
2021/12/07 08:03:45;;;;;;;20.55;8.65;;;;;;;0.11;57.94;100685.97;4985823;28;20030;-66
2021/12/07 08:06:11;;;;;;;33.92;10.75;;;;;;;0.40;57.08;100680.81;4986178;28;20030;-66
2021/12/07 08:08:36;;;;;;;26.60;9.63;;;;;;;-0.31;58.99;100693.59;4986384;28;20044;-66
2021/12/07 08:11:02;;;;;;;29.55;9.82;;;;;;;0.18;58.17;100703.94;4973755;28;20060;-67
2021/12/07 08:13:30;;;;;;;26.27;10.68;;;;;;;0.27;57.57;100711.66;4987188;28;20453;-67
2021/12/07 08:15:56;;;;;;;22.40;9.90;;;;;;;0.71;56.56;100707.34;4973860;28;20558;-67
2021/12/07 08:18:22;;;;;;;27.67;9.88;;;;;;;0.32;57.54;100708.22;4952952;28;20049;-67
2021/12/07 08:20:49;;;;;;;24.88;10.55;;;;;;;0.46;56.96;100702.22;4967915;28;20038;-67
2021/12/07 08:23:15;;;;;;;21.25;10.55;;;;;;;0.59;56.84;100709.91;4969647;28;20479;-67
2021/12/07 08:25:44;;;;;;;24.13;8.65;;;;;;;0.91;56.53;100707.31;4986375;28;20639;-67
2021/12/07 08:28:14;;;;;;;25.90;10.75;;;;;;;0.33;57.89;100712.53;4985488;28;20042;-67
2021/12/07 08:30:42;;;;;;;23.80;10.70;;;;;;;0.61;57.71;100700.47;4986207;28;20106;-66
2021/12/07 08:33:08;;;;;;;31.55;10.43;;;;;;;0.65;57.22;100705.63;4985457;28;20038;-67
2021/12/07 08:35:34;;;;;;;26.88;11.45;;;;;;;1.13;56.25;100699.50;4985355;28;20514;-66
2021/12/07 08:38:00;;;;;;;22.23;8.68;;;;;;;0.78;56.65;100708.19;4984332;28;20074;-67
2021/12/07 08:40:28;;;;;;;24.73;10.63;;;;;;;0.87;56.84;100714.16;4986585;28;20121;-67
2021/12/07 08:42:53;;;;;;;21.60;8.70;;;;;;;1.13;55.89;100699.50;4984656;28;20146;-67
2021/12/07 08:45:22;;;;;;;27.85;11.38;;;;;;;1.01;56.44;100718.41;4987438;28;20367;-67
2021/12/07 08:47:48;;;;;;;23.45;8.57;;;;;;;0.72;57.16;100723.63;4984184;28;20125;-67
2021/12/07 08:50:19;;;;;;;20.83;9.52;;;;;;;0.84;57.01;100731.34;4978102;28;20069;-66
2021/12/07 08:52:47;;;;;;;23.23;9.82;;;;;;;0.71;57.15;100721.94;4984030;28;20042;-67
2021/12/07 09:00:25;;;;;;;17.95;8.77;;;;;;;0.82;56.91;100720.19;4984921;28;20514;-66
2021/12/07 09:02:51;;;;;;;24.60;9.45;;;;;;;0.97;56.38;100715.00;4980782;28;20037;-67
2021/12/07 09:05:17;;;;;;;21.58;10.10;;;;;;;1.29;55.65;100717.47;4969818;28;20534;-67
2021/12/07 09:07:45;;;;;;;18.63;9.43;;;;;;;1.28;55.43;100714.88;4982435;28;20042;-66
2021/12/07 09:10:11;;;;;;;17.25;8.00;;;;;;;0.67;57.58;100715.91;4980473;28;20030;-66
2021/12/07 09:12:36;;;;;;;18.90;8.55;;;;;;;1.15;56.19;100715.78;4982112;28;20093;-66
2021/12/07 09:15:02;;;;;;;20.67;8.88;;;;;;;1.28;56.33;100713.19;4984626;28;20061;-66
2021/12/07 09:17:27;;;;;;;18.77;8.13;;;;;;;1.19;56.07;100709.78;4984845;28;20107;-67
2021/12/07 09:19:53;;;;;;;19.63;8.63;;;;;;;1.59;55.19;100712.22;4951533;28;20038;-67
2021/12/07 09:22:19;;;;;;;18.08;8.40;;;;;;;1.56;54.95;100710.50;4970326;28;20140;-67
2021/12/07 09:24:45;;;;;;;26.35;10.35;;;;;;;1.15;56.15;100710.63;4982430;28;20030;-67
2021/12/07 09:27:10;;;;;;;20.63;8.77;;;;;;;1.35;55.74;100708.88;4983118;28;20035;-67
2021/12/07 09:29:37;;;;;;;25.67;10.25;;;;;;;1.22;55.96;100709.78;4965615;28;20129;-66
2021/12/07 09:32:03;;;;;;;19.67;8.18;;;;;;;1.06;56.76;100720.13;4983497;28;20112;-67
2021/12/07 09:34:29;;;;;;;29.08;8.18;;;;;;;1.32;55.86;100722.59;4983420;28;20041;-66
2021/12/07 09:36:54;;;;;;;21.75;7.53;;;;;;;1.75;55.14;100718.13;4979555;28;20038;-66
2021/12/07 09:39:20;;;;;;;22.23;9.90;;;;;;;1.94;55.21;100707.69;4982810;28;20070;-66
2021/12/07 09:41:46;;;;;;;18.63;8.20;;;;;;;1.86;54.87;100722.38;4982983;28;20042;-66
2021/12/07 09:44:12;;;;;;;18.30;7.75;;;;;;;2.44;53.80;100720.22;4979426;28;20036;-66
2021/12/07 09:46:41;;;;;;;19.90;7.95;;;;;;;2.85;53.14;100712.09;4981132;28;20034;-66
2021/12/07 09:49:08;;;;;;;19.60;7.70;;;;;;;3.65;53.06;100706.00;4978909;28;20045;-66
2021/12/07 09:51:35;;;;;;;18.05;8.45;;;;;;;4.00;52.32;100708.03;4975255;28;20218;-67
2021/12/07 09:54:01;;;;;;;17.50;8.20;;;;;;;4.16;51.45;100710.38;4978189;28;20038;-67
2021/12/07 09:56:27;;;;;;;18.25;7.20;;;;;;;4.12;51.03;100706.13;4981888;28;20056;-67
2021/12/07 09:58:55;;;;;;;15.50;7.78;;;;;;;3.69;50.98;100709.38;4982953;28;20120;-67
2021/12/07 10:01:23;;;;;;;19.67;8.32;;;;;;;3.66;51.48;100696.50;4981764;28;20066;-67
2021/12/07 10:03:50;;;;;;;19.38;7.43;;;;;;;3.52;51.00;100702.72;4970205;28;20436;-66
2021/12/07 10:06:15;;;;;;;16.13;7.70;;;;;;;3.62;50.80;100703.41;4989113;28;20442;-66
2021/12/07 10:08:42;;;;;;;18.65;8.15;;;;;;;3.35;51.18;100697.75;4988326;28;20068;-66
2021/12/07 10:11:10;;;;;;;19.25;7.75;;;;;;;3.49;50.70;100689.84;4990942;28;20360;-66
2021/12/07 10:13:41;;;;;;;13.05;6.88;;;;;;;3.31;50.30;100695.22;4971522;28;20415;-66
2021/12/07 10:16:08;;;;;;;16.73;7.40;;;;;;;2.77;52.13;100696.66;4970868;28;20093;-66
2021/12/07 10:18:36;;;;;;;14.18;7.05;;;;;;;2.21;53.08;100707.50;4985496;28;20113;-66
2021/12/07 10:21:13;;;;;;;15.10;6.82;;;;;;;2.64;52.53;100710.56;4989101;28;20038;-67
2021/12/07 10:23:49;;;;;;;18.98;9.18;;;;;;;2.65;52.27;100707.13;4986952;28;20064;-66
2021/12/07 10:26:22;;;;;;;14.75;8.00;;;;;;;2.77;51.52;100686.34;4972897;28;20517;-66
2021/12/07 10:28:51;;;;;;;20.05;7.93;;;;;;;2.80;52.16;100684.59;4985211;28;20042;-66
2021/12/07 10:31:26;;;;;;;13.70;6.05;;;;;;;2.59;52.65;100685.69;4989715;28;20052;-66
2021/12/07 10:33:59;;;;;;;13.85;6.25;;;;;;;3.14;52.04;100680.75;4969694;28;20128;-66
2021/12/07 10:36:33;;;;;;;15.70;7.22;;;;;;;3.13;51.50;100679.03;4980918;28;20129;-66
2021/12/07 10:39:04;;;;;;;17.38;7.35;;;;;;;3.04;51.13;100673.13;4988548;28;20050;-67
2021/12/07 10:41:39;;;;;;;17.92;7.07;;;;;;;2.90;51.30;100674.16;4988670;28;20138;-66
2021/12/07 10:44:08;;;;;;;15.95;6.72;;;;;;;2.97;51.59;100698.19;4987216;28;20043;-69
2021/12/07 10:46:40;;;;;;;13.65;7.00;;;;;;;2.45;52.63;100689.25;4978411;28;20103;-66
2021/12/07 10:49:25;;;;;;;15.70;7.25;;;;;;;2.37;53.12;100687.59;4984961;28;20498;-66
2021/12/07 10:52:03;;;;;;;17.35;7.55;;;;;;;2.34;53.25;100717.72;4984602;28;20092;-66
2021/12/07 10:54:43;;;;;;;17.88;7.93;;;;;;;1.94;54.09;100717.16;4987741;28;20580;-66
2021/12/07 10:57:14;;;;;;;17.45;8.23;;;;;;;2.41;53.66;100702.19;4983554;28;20046;-66
2021/12/07 10:59:49;;;;;;;15.02;7.63;;;;;;;2.87;52.50;100704.34;4987223;28;20054;-66
2021/12/07 11:02:16;;;;;;;23.85;8.50;;;;;;;2.70;52.84;100722.56;4978284;28;20054;-66
2021/12/07 11:04:43;;;;;;;23.83;8.90;;;;;;;2.76;52.45;100707.03;4989231;28;20057;-66
2021/12/07 11:07:09;;;;;;;25.58;9.25;;;;;;;2.21;54.27;100708.34;4986689;28;20034;-65
2021/12/07 11:10:02;;;;;;;19.17;8.63;;;;;;;2.37;53.87;100710.81;4972136;28;20813;-66
2021/12/07 11:12:34;;;;;;;18.85;8.90;;;;;;;2.46;54.41;100706.41;4946611;28;20053;-66
2021/12/07 11:15:01;;;;;;;16.55;7.15;;;;;;;2.16;54.99;100701.53;4988267;28;20034;-66
2021/12/07 11:17:30;;;;;;;20.70;9.25;;;;;;;2.27;54.38;100712.63;4974423;28;20042;-66
2021/12/07 11:19:56;;;;;;;19.40;8.27;;;;;;;2.00;55.43;100703.34;4963951;28;20057;-66
2021/12/07 11:22:28;;;;;;;22.00;8.23;;;;;;;2.63;54.06;100700.28;4991861;28;20507;-66
2021/12/07 11:24:54;;;;;;;;;;;;;;;2.86;52.82;100705.19;4970966;28;20510;-66
2021/12/07 11:30:06;;;;;;;19.17;7.28;;;;;;;2.04;54.89;100707.63;4988610;28;20054;-66
2021/12/07 11:32:32;;;;;;;14.85;7.28;;;;;;;2.28;54.67;100707.44;4979158;28;20092;-65
2021/12/07 11:35:26;;;;;;;17.15;7.30;;;;;;;2.76;53.64;100704.44;4982616;28;20038;-66
2021/12/07 11:37:59;;;;;;;15.00;6.75;;;;;;;2.85;53.15;100711.22;4989791;28;20136;-66
2021/12/07 11:40:28;;;;;;;13.23;7.25;;;;;;;3.10;52.64;100709.22;4972298;28;20380;-66
2021/12/07 11:42:56;;;;;;;15.90;7.63;;;;;;;3.08;52.01;100714.41;4990589;28;20113;-66
2021/12/07 11:45:27;;;;;;;16.60;7.45;;;;;;;2.92;52.76;100716.31;4974111;28;20470;-66
2021/12/07 11:47:57;;;;;;;14.13;7.03;;;;;;;3.43;52.13;100705.41;4985952;28;20065;-66
2021/12/07 11:50:32;;;;;;;15.27;7.18;;;;;;;3.25;52.18;100710.75;4986603;28;20026;-66
2021/12/07 11:53:02;;;;;;;16.38;7.30;;;;;;;3.66;52.02;100709.41;4989368;28;20091;-66
2021/12/07 11:55:29;;;;;;;13.57;6.75;;;;;;;3.48;52.53;100711.38;4988210;28;20033;-66
2021/12/07 11:57:55;;;;;;;12.98;6.18;;;;;;;3.64;51.82;100717.19;4973221;28;20140;-66
2021/12/07 12:00:26;;;;;;;16.35;6.85;;;;;;;3.53;52.36;100703.56;4986663;28;20034;-65
2021/12/07 12:02:53;;;;;;;9.85;5.13;;;;;;;3.26;52.68;100709.91;4978468;28;22163;-66
2021/12/07 12:05:19;;;;;;;15.98;6.30;;;;;;;3.32;53.09;100715.03;4984854;28;20038;-65
2021/12/07 12:07:47;;;;;;;13.48;5.18;;;;;;;3.35;53.16;100709.81;4984394;28;20049;-66
2021/12/07 12:10:14;;;;;;;16.13;5.95;;;;;;;3.47;52.06;100708.78;4987993;28;20494;-66
2021/12/07 12:13:01;;;;;;;14.13;5.38;;;;;;;4.14;51.18;100699.19;4985383;28;20617;-66
2021/12/07 12:15:47;;;;;;;15.13;5.80;;;;;;;3.83;51.68;100701.41;4986802;28;20034;-65
2021/12/07 12:18:15;;;;;;;14.77;5.30;;;;;;;4.00;51.39;100710.63;4955076;28;20038;-65
2021/12/07 12:20:56;;;;;;;14.18;5.30;;;;;;;3.96;51.07;100706.41;4955351;28;20862;-66
2021/12/07 12:23:52;;;;;;;11.65;4.95;;;;;;;4.14;50.78;100701.78;4982001;28;20321;-66
2021/12/07 12:26:24;;;;;;;12.93;5.47;;;;;;;4.21;50.73;100701.69;4982141;28;20097;-66
2021/12/07 12:28:50;;;;;;;11.05;4.63;;;;;;;3.93;51.23;100703.84;4986320;28;20052;-65
2021/12/07 12:31:40;;;;;;;9.38;4.50;;;;;;;4.13;50.91;100705.28;4982529;28;20041;-65
2021/12/07 12:34:14;;;;;;;11.40;4.80;;;;;;;3.82;51.72;100700.56;4983945;28;20069;-65
2021/12/07 12:36:54;;;;;;;11.10;5.03;;;;;;;3.87;51.67;100698.75;4985054;28;20399;-65
2021/12/07 12:39:19;;;;;;;9.68;4.20;;;;;;;3.74;52.05;100699.84;4985402;28;20038;-65
2021/12/07 12:41:45;;;;;;;13.45;4.93;;;;;;;3.87;51.53;100695.31;4983334;28;20561;-66
2021/12/07 12:44:15;;;;;;;14.90;5.20;;;;;;;4.03;51.61;100686.47;4984614;28;20037;-65
2021/12/07 12:46:41;;;;;;;10.27;3.80;;;;;;;3.77;51.56;100689.44;4983788;28;20030;-65
2021/12/07 12:49:11;;;;;;;12.48;4.68;;;;;;;4.02;50.99;100679.56;4984176;28;20358;-65
2021/12/07 12:51:49;;;;;;;11.00;4.70;;;;;;;4.05;50.91;100683.84;4982135;28;20057;-66
2021/12/07 12:54:16;;;;;;;10.98;4.32;;;;;;;4.54;49.56;100672.66;4984272;28;20065;-65
2021/12/07 12:56:41;;;;;;;10.85;4.05;;;;;;;4.62;49.55;100663.03;4974899;28;20458;-65
2021/12/07 12:59:10;;;;;;;15.73;5.43;;;;;;;4.60;50.35;100665.63;4966996;28;20309;-67